createdAt,value
2023-05-16T00:01:18.235Z,100.00
2023-05-16T00:03:21.089Z,100.00
2023-05-16T00:05:24.002Z,100.00
2023-05-16T00:07:26.705Z,100.00
2023-05-16T00:09:29.321Z,100.00
2023-05-16T00:11:31.964Z,100.00
2023-05-16T00:13:36.409Z,100.00
2023-05-16T00:15:39.797Z,100.00
2023-05-16T00:17:43.737Z,100.00
2023-05-16T00:19:47.420Z,100.00
2023-05-16T00:21:50.168Z,100.00
2023-05-16T00:23:53.093Z,100.00
2023-05-16T00:25:56.117Z,100.00
2023-05-16T00:27:59.010Z,100.00
2023-05-16T00:30:03.729Z,100.00
2023-05-16T00:32:08.743Z,100.00
2023-05-16T00:34:11.689Z,100.00
2023-05-16T00:36:14.374Z,100.00
2023-05-16T00:38:17.133Z,100.00
2023-05-16T00:40:19.797Z,100.00
2023-05-16T00:42:22.624Z,100.00
2023-05-16T00:44:25.320Z,100.00
2023-05-16T00:46:29.511Z,100.00
2023-05-16T00:48:32.623Z,100.00
2023-05-16T00:50:35.599Z,100.00
2023-05-16T00:52:38.601Z,100.00
2023-05-16T00:54:41.276Z,100.00
2023-05-16T00:56:43.994Z,100.00
2023-05-16T00:58:46.820Z,100.00
2023-05-16T01:00:49.923Z,100.00
2023-05-16T01:02:54.158Z,100.00
2023-05-16T01:04:57.301Z,100.00
2023-05-16T01:07:00.044Z,100.00
2023-05-16T01:09:02.839Z,100.00
2023-05-16T01:11:17.250Z,100.00
2023-05-16T01:13:29.099Z,100.00
2023-05-16T01:15:40.747Z,100.00
2023-05-16T01:17:58.037Z,100.00
2023-05-16T01:20:11.276Z,100.00
2023-05-16T01:22:21.624Z,100.00
2023-05-16T01:24:34.224Z,100.00
2023-05-16T01:26:38.108Z,100.00
2023-05-16T01:28:42.173Z,100.00
2023-05-16T01:30:45.803Z,100.00
2023-05-16T01:32:48.443Z,100.00
2023-05-16T01:34:52.084Z,100.00
2023-05-16T01:37:02.442Z,100.00
2023-05-16T01:39:15.908Z,100.00
2023-05-16T01:41:24.041Z,100.00
2023-05-16T01:43:38.183Z,100.00
2023-05-16T01:45:46.834Z,100.00
2023-05-16T01:48:01.850Z,100.00
2023-05-16T01:50:11.173Z,100.00
2023-05-16T01:52:20.602Z,100.00
2023-05-16T01:54:27.047Z,100.00
2023-05-16T01:56:31.011Z,100.00
2023-05-16T01:58:36.965Z,100.00
2023-05-16T02:00:40.684Z,100.00
2023-05-16T02:02:43.476Z,100.00
2023-05-16T02:04:46.145Z,100.00
2023-05-16T02:06:49.262Z,100.00
2023-05-16T02:08:52.020Z,100.00
2023-05-16T02:10:54.715Z,100.00
2023-05-16T02:12:57.790Z,100.00
2023-05-16T02:15:01.804Z,100.00
2023-05-16T02:17:04.578Z,100.00
2023-05-16T02:19:07.377Z,100.00
2023-05-16T02:21:10.111Z,100.00
2023-05-16T02:23:12.770Z,100.00
2023-05-16T02:25:16.362Z,100.00
2023-05-16T02:27:19.145Z,100.00
2023-05-16T02:29:21.832Z,100.00
2023-05-16T02:31:30.339Z,100.00
2023-05-16T02:33:33.158Z,100.00
2023-05-16T02:35:35.850Z,100.00
2023-05-16T02:37:38.558Z,100.00
2023-05-16T02:39:41.224Z,100.00
2023-05-16T02:41:43.855Z,100.00
2023-05-16T02:43:47.211Z,100.00
2023-05-16T02:45:50.286Z,100.00
2023-05-16T02:47:54.307Z,100.00
2023-05-16T02:49:57.250Z,100.00
2023-05-16T02:51:59.891Z,100.00
2023-05-16T02:54:02.716Z,100.00
2023-05-16T02:56:06.951Z,100.00
2023-05-16T02:58:09.639Z,100.00
2023-05-16T03:00:15.129Z,100.00
2023-05-16T03:02:18.844Z,100.00
2023-05-16T03:04:23.652Z,100.00
2023-05-16T03:06:26.346Z,100.00
2023-05-16T03:08:29.162Z,100.00
2023-05-16T03:10:31.853Z,100.00
2023-05-16T03:12:34.597Z,100.00
2023-05-16T03:14:37.227Z,100.00
2023-05-16T03:16:41.651Z,100.00
2023-05-16T03:18:44.511Z,100.00
2023-05-16T03:20:48.528Z,100.00
2023-05-16T03:22:51.154Z,100.00
2023-05-16T03:24:53.849Z,100.00
2023-05-16T03:26:56.650Z,100.00
2023-05-16T03:28:59.358Z,100.00
2023-05-16T03:31:02.154Z,100.00
2023-05-16T03:33:05.156Z,100.00
2023-05-16T03:35:08.359Z,100.00
2023-05-16T03:37:14.936Z,100.00
2023-05-16T03:39:17.786Z,100.00
2023-05-16T03:41:21.022Z,100.00
2023-05-16T03:43:23.733Z,100.00
2023-05-16T03:45:26.680Z,100.00
2023-05-16T03:47:31.852Z,100.00
2023-05-16T03:49:34.506Z,100.00
2023-05-16T03:51:37.133Z,100.00
2023-05-16T03:53:41.422Z,100.00
2023-05-16T03:55:45.099Z,100.00
2023-05-16T03:57:50.006Z,100.00
2023-05-16T03:59:52.714Z,100.00
2023-05-16T04:01:55.621Z,100.00
2023-05-16T04:03:58.232Z,100.00
2023-05-16T04:06:01.201Z,100.00
2023-05-16T04:08:03.930Z,100.00
2023-05-16T04:10:08.807Z,100.00
2023-05-16T04:12:11.473Z,100.00
2023-05-16T04:14:14.320Z,100.00
2023-05-16T04:16:17.142Z,100.00
2023-05-16T04:18:19.980Z,100.00
2023-05-16T04:20:23.056Z,100.00
2023-05-16T04:22:25.959Z,100.00
2023-05-16T04:24:29.039Z,100.00
2023-05-16T04:26:33.025Z,100.00
2023-05-16T04:28:35.943Z,100.00
2023-05-16T04:30:38.845Z,100.00
2023-05-16T04:32:41.670Z,100.00
2023-05-16T04:34:46.668Z,100.00
2023-05-16T04:36:49.385Z,100.00
2023-05-16T04:38:55.317Z,100.00
2023-05-16T04:40:58.491Z,100.00
2023-05-16T04:43:02.500Z,100.00
2023-05-16T04:45:06.659Z,100.00
2023-05-16T04:47:09.391Z,100.00
2023-05-16T04:49:12.900Z,100.00
2023-05-16T04:51:15.585Z,100.00
2023-05-16T04:53:18.183Z,100.00
2023-05-16T04:55:20.850Z,100.00
2023-05-16T04:57:23.642Z,100.00
2023-05-16T04:59:27.663Z,100.00
2023-05-16T05:01:30.341Z,100.00
2023-05-16T05:03:33.216Z,100.00
2023-05-16T05:05:35.978Z,100.00
2023-05-16T05:07:38.648Z,100.00
2023-05-16T05:09:43.753Z,100.00
2023-05-16T05:11:46.427Z,100.00
2023-05-16T05:13:50.268Z,100.00
2023-05-16T05:15:56.420Z,100.00
2023-05-16T05:17:59.318Z,100.00
2023-05-16T05:20:03.323Z,100.00
2023-05-16T05:22:06.440Z,100.00
2023-05-16T05:24:09.142Z,100.00
2023-05-16T05:26:12.004Z,100.00
2023-05-16T05:28:14.631Z,100.00
2023-05-16T05:30:17.304Z,100.00
2023-05-16T05:32:21.274Z,100.00
2023-05-16T05:34:23.938Z,100.00
2023-05-16T05:36:26.525Z,100.00
2023-05-16T05:38:29.188Z,100.00
2023-05-16T05:40:32.056Z,100.00
2023-05-16T05:42:35.237Z,100.00
2023-05-16T05:44:38.601Z,100.00
2023-05-16T05:46:41.660Z,100.00
2023-05-16T05:48:45.952Z,100.00
2023-05-16T05:50:48.683Z,100.00
2023-05-16T05:52:51.420Z,100.00
2023-05-16T05:54:54.094Z,100.00
2023-05-16T05:56:57.030Z,100.00
2023-05-16T05:58:59.708Z,100.00
2023-05-16T06:01:02.466Z,100.00
2023-05-16T06:03:05.714Z,100.00
2023-05-16T06:05:10.574Z,100.00
2023-05-16T06:07:15.260Z,100.00
2023-05-16T06:09:17.948Z,100.00
2023-05-16T06:11:21.448Z,100.00
2023-05-16T06:13:24.106Z,100.00
2023-05-16T06:15:27.427Z,100.00
2023-05-16T06:17:30.356Z,100.00
2023-05-16T06:19:32.981Z,100.00
2023-05-16T06:21:37.266Z,100.00
2023-05-16T06:23:39.827Z,100.00
2023-05-16T06:25:42.495Z,100.00
2023-05-16T06:27:45.097Z,100.00
2023-05-16T06:29:47.714Z,100.00
2023-05-16T06:31:50.441Z,100.00
2023-05-16T06:33:53.138Z,100.00
2023-05-16T06:35:55.806Z,100.00
2023-05-16T06:37:59.847Z,100.00
2023-05-16T06:40:02.530Z,100.00
2023-05-16T06:42:06.023Z,100.00
2023-05-16T06:44:08.714Z,100.00
2023-05-16T06:46:11.434Z,100.00
2023-05-16T06:48:15.567Z,100.00
2023-05-16T06:50:18.284Z,100.00
2023-05-16T06:52:21.147Z,100.00
2023-05-16T06:54:25.169Z,100.00
2023-05-16T06:56:28.699Z,100.00
2023-05-16T06:58:31.554Z,100.00
2023-05-16T07:00:34.232Z,100.00
2023-05-16T07:02:36.963Z,100.00
2023-05-16T07:04:39.660Z,100.00
2023-05-16T07:06:42.487Z,100.00
2023-05-16T07:08:45.190Z,100.00
2023-05-16T07:10:49.251Z,100.00
2023-05-16T07:12:51.929Z,100.00
2023-05-16T07:14:54.607Z,100.00
2023-05-16T07:16:57.448Z,100.00
2023-05-16T07:19:00.267Z,100.00
2023-05-16T07:21:02.976Z,100.00
2023-05-16T07:23:05.767Z,100.00
2023-05-16T07:25:12.616Z,100.00
2023-05-16T07:27:16.707Z,100.00
2023-05-16T07:29:19.493Z,100.00
2023-05-16T07:31:22.243Z,100.00
2023-05-16T07:33:25.313Z,100.00
2023-05-16T07:35:28.144Z,100.00
2023-05-16T07:37:31.268Z,100.00
2023-05-16T07:39:33.978Z,100.00
2023-05-16T07:41:36.621Z,100.00
2023-05-16T07:43:40.644Z,100.00
2023-05-16T07:45:43.538Z,100.00
2023-05-16T07:47:46.299Z,100.00
2023-05-16T07:49:49.186Z,100.00
2023-05-16T07:51:51.978Z,100.00
2023-05-16T07:53:54.701Z,100.00
2023-05-16T07:55:57.514Z,100.00
2023-05-16T07:58:00.187Z,100.00
2023-05-16T08:00:05.101Z,100.00
2023-05-16T08:02:08.010Z,100.00
2023-05-16T08:04:10.806Z,100.00
2023-05-16T08:06:13.564Z,100.00
2023-05-16T08:08:16.368Z,100.00
2023-05-16T08:10:19.165Z,100.00
2023-05-16T08:12:21.938Z,100.00
2023-05-16T08:14:24.744Z,100.00
2023-05-16T08:16:28.884Z,100.00
2023-05-16T08:18:31.668Z,100.00
2023-05-16T08:20:34.347Z,100.00
2023-05-16T08:22:37.078Z,100.00
2023-05-16T08:24:39.794Z,100.00
2023-05-16T08:26:42.508Z,100.00
2023-05-16T08:28:45.270Z,100.00
2023-05-16T08:30:48.204Z,100.00
2023-05-16T08:32:52.363Z,100.00
2023-05-16T08:34:55.185Z,100.00
2023-05-16T08:36:57.797Z,100.00
2023-05-16T08:39:00.554Z,100.00
2023-05-16T08:41:03.327Z,100.00
2023-05-16T08:43:06.391Z,100.00
2023-05-16T08:45:09.894Z,100.00
2023-05-16T08:47:14.775Z,100.00
2023-05-16T08:49:19.797Z,100.00
2023-05-16T08:51:22.674Z,100.00
2023-05-16T08:53:32.778Z,100.00
2023-05-16T08:55:36.453Z,100.00
2023-05-16T08:57:39.972Z,100.00
2023-05-16T08:59:43.161Z,100.00
2023-05-16T09:01:46.137Z,100.00
2023-05-16T09:03:49.898Z,100.00
2023-05-16T09:05:54.026Z,100.00
2023-05-16T09:07:56.756Z,100.00
2023-05-16T09:09:59.515Z,100.00
2023-05-16T09:12:02.271Z,100.00
2023-05-16T09:14:05.938Z,100.00
2023-05-16T09:16:13.370Z,100.00
2023-05-16T09:18:16.087Z,100.00
2023-05-16T09:20:22.505Z,100.00
2023-05-16T09:22:26.540Z,100.00
2023-05-16T09:24:29.461Z,100.00
2023-05-16T09:26:33.501Z,100.00
2023-05-16T09:28:39.025Z,100.00
2023-05-16T09:30:42.586Z,100.00
2023-05-16T09:32:46.038Z,100.00
2023-05-16T09:34:51.481Z,100.00
2023-05-16T09:36:55.953Z,100.00
2023-05-16T09:39:00.226Z,100.00
2023-05-16T09:41:03.543Z,100.00
2023-05-16T09:43:07.835Z,100.00
2023-05-16T09:45:14.088Z,100.00
2023-05-16T09:47:17.531Z,100.00
2023-05-16T09:49:20.532Z,100.00
2023-05-16T09:51:24.290Z,100.00
2023-05-16T09:53:28.588Z,100.00
2023-05-16T09:55:34.039Z,100.00
2023-05-16T09:57:39.512Z,100.00
2023-05-16T09:59:43.027Z,100.00
2023-05-16T10:01:46.235Z,100.00
2023-05-16T10:03:51.897Z,100.00
2023-05-16T10:05:55.970Z,100.00
2023-05-16T10:07:59.425Z,100.00
2023-05-16T10:10:05.315Z,100.00
2023-05-16T10:12:14.202Z,100.00
2023-05-16T10:14:19.024Z,100.00
2023-05-16T10:16:24.358Z,100.00
2023-05-16T10:18:32.358Z,100.00
2023-05-16T10:20:36.023Z,100.00
2023-05-16T10:22:44.002Z,100.00
2023-05-16T10:24:51.714Z,100.00
2023-05-16T10:26:54.477Z,100.00
2023-05-16T10:28:58.613Z,100.00
2023-05-16T10:31:02.870Z,100.00
2023-05-16T10:33:06.021Z,100.00
2023-05-16T10:35:10.045Z,100.00
2023-05-16T10:37:12.923Z,100.00
2023-05-16T10:39:16.315Z,100.00
2023-05-16T10:41:22.047Z,100.00
2023-05-16T10:43:26.754Z,100.00
2023-05-16T10:45:31.813Z,100.00
2023-05-16T10:47:35.107Z,100.00
2023-05-16T10:49:42.325Z,100.00
2023-05-16T10:51:45.118Z,100.00
2023-05-16T10:53:48.347Z,100.00
2023-05-16T10:56:11.098Z,100.00
2023-05-16T10:58:13.934Z,100.00
2023-05-16T11:00:23.717Z,100.00
2023-05-16T11:02:30.337Z,100.00
2023-05-16T11:04:46.746Z,100.00
2023-05-16T11:06:54.726Z,100.00
2023-05-16T11:09:06.510Z,100.00
2023-05-16T11:11:41.184Z,100.00
2023-05-16T11:13:55.988Z,100.00
2023-05-16T11:16:28.463Z,100.00
2023-05-16T11:18:34.681Z,100.00
2023-05-16T11:20:39.493Z,100.00
2023-05-16T11:22:42.228Z,100.00
2023-05-16T11:24:56.055Z,100.00
2023-05-16T11:27:00.928Z,100.00
2023-05-16T11:29:04.571Z,100.00
2023-05-16T11:31:07.334Z,100.00
2023-05-16T11:33:10.150Z,100.00
2023-05-16T11:35:16.829Z,100.00
2023-05-16T11:37:21.336Z,100.00
2023-05-16T11:39:25.519Z,100.00
2023-05-16T11:41:28.246Z,100.00
2023-05-16T11:43:31.271Z,100.00
2023-05-16T11:45:34.400Z,100.00
2023-05-16T11:47:39.105Z,100.00
2023-05-16T11:49:41.885Z,100.00
2023-05-16T11:51:46.826Z,100.00
2023-05-16T11:53:50.783Z,100.00
2023-05-16T11:55:55.737Z,100.00
2023-05-16T11:57:59.570Z,100.00
2023-05-16T12:00:07.978Z,100.00
2023-05-16T12:02:11.187Z,100.00
2023-05-16T12:04:15.507Z,100.00
2023-05-16T12:06:18.404Z,100.00
2023-05-16T12:08:24.688Z,100.00
2023-05-16T12:10:27.828Z,100.00
2023-05-16T12:12:31.004Z,100.00
2023-05-16T12:14:33.963Z,100.00
2023-05-16T12:16:38.092Z,100.00
2023-05-16T12:18:43.371Z,100.00
2023-05-16T12:20:46.580Z,100.00
2023-05-16T12:22:49.333Z,100.00
2023-05-16T12:24:53.503Z,100.00
2023-05-16T12:26:59.066Z,100.00
2023-05-16T12:29:03.517Z,100.00
2023-05-16T12:31:27.082Z,100.00
2023-05-16T12:33:38.651Z,100.00
2023-05-16T12:35:42.656Z,100.00
2023-05-16T12:37:45.555Z,100.00
2023-05-16T12:39:48.347Z,100.00
2023-05-16T12:41:52.376Z,100.00
2023-05-16T12:44:07.888Z,100.00
2023-05-16T12:46:12.029Z,100.00
2023-05-16T12:48:14.968Z,100.00
2023-05-16T12:50:18.438Z,100.00
2023-05-16T12:52:22.504Z,100.00
2023-05-16T12:54:25.496Z,100.00
2023-05-16T12:56:28.312Z,100.00
2023-05-16T12:58:32.880Z,100.00
2023-05-16T13:00:36.521Z,100.00
2023-05-16T13:02:39.481Z,100.00
2023-05-16T13:04:42.250Z,100.00
2023-05-16T13:06:58.706Z,100.00
2023-05-16T13:09:02.770Z,100.00
2023-05-16T13:11:05.542Z,100.00
2023-05-16T13:13:08.218Z,100.00
2023-05-16T13:15:13.000Z,100.00
2023-05-16T13:17:15.666Z,100.00
2023-05-16T13:19:18.520Z,100.00
2023-05-16T13:21:22.533Z,100.00
2023-05-16T13:23:25.224Z,100.00
2023-05-16T13:25:28.223Z,100.00
2023-05-16T13:27:31.397Z,100.00
2023-05-16T13:29:34.150Z,100.00
2023-05-16T13:31:38.358Z,100.00
2023-05-16T13:33:41.332Z,100.00
2023-05-16T13:35:44.425Z,100.00
2023-05-16T13:37:47.175Z,100.00
2023-05-16T13:39:49.879Z,100.00
2023-05-16T13:41:52.640Z,100.00
2023-05-16T13:43:55.453Z,100.00
2023-05-16T13:45:58.222Z,100.00
2023-05-16T13:48:02.376Z,100.00
2023-05-16T13:50:09.154Z,100.00
2023-05-16T13:52:11.833Z,100.00
2023-05-16T13:54:14.535Z,100.00
2023-05-16T13:56:17.258Z,100.00
2023-05-16T13:58:19.934Z,100.00
2023-05-16T14:02:28.245Z,100.00
2023-05-16T14:04:32.362Z,100.00
2023-05-16T14:06:35.027Z,100.00
2023-05-16T14:08:37.765Z,100.00
2023-05-16T14:10:40.488Z,100.00
2023-05-16T14:12:43.533Z,100.00
2023-05-16T14:14:46.316Z,100.00
2023-05-16T14:16:49.162Z,100.00
2023-05-16T14:18:51.902Z,100.00
2023-05-16T14:20:56.583Z,100.00
2023-05-16T14:22:59.245Z,100.00
2023-05-16T14:25:01.928Z,100.00
2023-05-16T14:27:04.951Z,100.00
2023-05-16T14:29:07.693Z,100.00
2023-05-16T14:31:10.598Z,100.00
2023-05-16T14:33:13.267Z,100.00
2023-05-16T14:35:16.176Z,100.00
2023-05-16T14:37:20.273Z,100.00
2023-05-16T14:39:23.004Z,100.00
2023-05-16T14:41:25.686Z,100.00
2023-05-16T14:43:28.443Z,100.00
2023-05-16T14:45:32.405Z,100.00
2023-05-16T14:47:35.183Z,100.00
2023-05-16T14:49:37.999Z,100.00
2023-05-16T14:51:40.740Z,100.00
2023-05-16T14:53:46.904Z,100.00
2023-05-16T14:55:50.144Z,100.00
2023-05-16T14:57:59.235Z,100.00
2023-05-16T15:00:02.735Z,100.00
2023-05-16T15:02:06.465Z,100.00
2023-05-16T15:04:09.280Z,100.00
2023-05-16T15:06:12.053Z,100.00
2023-05-16T15:08:14.883Z,100.00
2023-05-16T15:10:18.965Z,100.00
2023-05-16T15:12:21.705Z,100.00
2023-05-16T15:14:25.678Z,100.00
2023-05-16T15:16:28.442Z,100.00
2023-05-16T15:18:31.208Z,100.00
2023-05-16T15:20:34.103Z,100.00
2023-05-16T15:22:36.855Z,99.72
2023-05-16T15:24:39.579Z,98.76
2023-05-16T15:26:43.793Z,97.42
2023-05-16T15:28:46.537Z,98.09
2023-05-16T15:30:49.221Z,98.24
2023-05-16T15:32:51.946Z,96.66
2023-05-16T15:34:54.990Z,94.49
2023-05-16T15:36:57.772Z,93.89
2023-05-16T15:39:00.431Z,93.42
2023-05-16T15:41:18.680Z,92.11
2023-05-16T15:43:29.844Z,93.99
2023-05-16T15:45:32.660Z,92.54
2023-05-16T15:47:35.546Z,93.25
2023-05-16T15:49:38.530Z,93.66
2023-05-16T15:51:41.183Z,92.32
2023-05-16T15:53:44.741Z,90.58
2023-05-16T15:55:47.892Z,89.79
2023-05-16T15:57:50.652Z,89.32
2023-05-16T15:59:54.721Z,89.62
2023-05-16T16:01:57.366Z,90.91
2023-05-16T16:04:00.084Z,92.30
2023-05-16T16:06:02.971Z,91.24
2023-05-16T16:08:06.043Z,90.89
2023-05-16T16:10:09.870Z,91.74
2023-05-16T16:12:12.608Z,93.40
2023-05-16T16:14:15.324Z,92.78
2023-05-16T16:16:19.469Z,92.32
2023-05-16T16:18:22.193Z,91.95
2023-05-16T16:20:25.024Z,92.35
2023-05-16T16:22:27.795Z,91.46
2023-05-16T16:24:30.514Z,90.21
2023-05-16T16:26:33.227Z,89.15
2023-05-16T16:28:35.941Z,88.50
2023-05-16T16:30:38.631Z,90.69
2023-05-16T16:32:42.838Z,90.00
2023-05-16T16:34:45.646Z,88.96
2023-05-16T16:36:48.457Z,88.17
2023-05-16T16:38:51.153Z,88.48
2023-05-16T16:40:53.876Z,87.17
2023-05-16T16:42:56.777Z,87.88
2023-05-16T16:44:59.464Z,87.34
2023-05-16T16:47:02.374Z,87.90
2023-05-16T16:49:06.567Z,87.32
2023-05-16T16:51:09.349Z,86.34
2023-05-16T16:53:11.977Z,85.53
2023-05-16T16:55:14.913Z,84.67
2023-05-16T16:57:17.745Z,84.64
2023-05-16T16:59:20.969Z,84.57
2023-05-16T17:01:24.022Z,83.84
2023-05-16T17:03:26.901Z,84.23
2023-05-16T17:05:31.087Z,82.99
2023-05-16T17:07:34.045Z,82.95
2023-05-16T17:09:37.100Z,82.93
2023-05-16T17:11:40.566Z,82.98
2023-05-16T17:13:43.477Z,82.81
2023-05-16T17:15:47.870Z,82.26
2023-05-16T17:17:51.574Z,82.01
2023-05-16T17:19:55.570Z,83.10
2023-05-16T17:21:59.616Z,81.73
2023-05-16T17:24:02.315Z,82.71
2023-05-16T17:26:04.979Z,79.98
2023-05-16T17:28:07.854Z,80.98
2023-05-16T17:30:11.463Z,79.89
2023-05-16T17:32:14.319Z,78.76
2023-05-16T17:34:17.283Z,79.50
2023-05-16T17:36:20.019Z,78.97
2023-05-16T17:38:24.078Z,78.02
2023-05-16T17:40:26.764Z,78.01
2023-05-16T17:42:29.462Z,79.04
2023-05-16T17:44:32.201Z,78.43
2023-05-16T17:46:35.220Z,79.20
2023-05-16T17:48:38.043Z,76.33
2023-05-16T17:50:41.363Z,78.24
2023-05-16T17:52:44.681Z,78.61
2023-05-16T17:54:48.892Z,78.70
2023-05-16T17:56:53.487Z,77.96
2023-05-16T17:58:56.423Z,77.18
2023-05-16T18:00:59.176Z,77.53
2023-05-16T18:03:02.077Z,78.26
2023-05-16T18:07:08.212Z,78.67
2023-05-16T18:09:11.634Z,78.58
2023-05-16T18:11:15.698Z,78.73
2023-05-16T18:13:18.712Z,78.47
2023-05-16T18:15:22.466Z,76.66
2023-05-16T18:17:25.180Z,78.22
2023-05-16T18:19:27.978Z,78.70
2023-05-16T18:21:30.907Z,78.28
2023-05-16T18:23:34.821Z,78.40
2023-05-16T18:25:37.586Z,78.16
2023-05-16T18:27:41.919Z,77.29
2023-05-16T18:29:44.605Z,75.84
2023-05-16T18:31:47.348Z,75.26
2023-05-16T18:33:50.318Z,76.10
2023-05-16T18:35:53.005Z,76.03
2023-05-16T18:37:55.783Z,76.65
2023-05-16T18:39:58.556Z,75.74
2023-05-16T18:42:01.318Z,73.76
2023-05-16T18:44:05.992Z,75.20
2023-05-16T18:46:08.691Z,75.05
2023-05-16T18:48:11.622Z,75.72
2023-05-16T18:50:14.586Z,75.05
2023-05-16T18:52:17.723Z,73.81
2023-05-16T18:54:22.595Z,72.15
2023-05-16T18:56:26.760Z,73.78
2023-05-16T18:58:29.457Z,72.60
2023-05-16T19:00:34.285Z,73.44
2023-05-16T19:02:42.119Z,69.76
2023-05-16T19:04:46.219Z,69.69
2023-05-16T19:06:49.539Z,70.00
2023-05-16T19:08:52.418Z,70.28
2023-05-16T19:10:55.312Z,70.14
2023-05-16T19:13:01.409Z,70.51
2023-05-16T19:15:04.324Z,70.96
2023-05-16T19:17:08.534Z,71.20
2023-05-16T19:19:11.331Z,70.74
2023-05-16T19:21:15.671Z,69.42
2023-05-16T19:23:18.454Z,70.49
2023-05-16T19:25:21.135Z,69.94
2023-05-16T19:27:23.877Z,68.99
2023-05-16T19:29:26.803Z,68.94
2023-05-16T19:31:29.759Z,69.01
2023-05-16T19:33:33.945Z,68.62
2023-05-16T19:35:38.428Z,67.75
2023-05-16T19:37:41.194Z,68.94
2023-05-16T19:39:43.933Z,70.36
2023-05-16T19:41:51.705Z,68.64
2023-05-16T19:43:55.136Z,68.67
2023-05-16T19:45:58.004Z,68.84
2023-05-16T19:48:00.834Z,68.78
2023-05-16T19:50:05.564Z,69.06
2023-05-16T19:52:09.234Z,69.44
2023-05-16T19:54:11.962Z,69.43
2023-05-16T19:56:14.897Z,69.01
2023-05-16T19:58:18.033Z,68.68
2023-05-16T20:00:21.275Z,67.64
2023-05-16T20:02:24.737Z,68.85
2023-05-16T20:04:28.152Z,69.10
2023-05-16T20:06:32.579Z,68.82
2023-05-16T20:08:35.483Z,68.85
2023-05-16T20:10:38.199Z,68.40
2023-05-16T20:12:40.930Z,68.06
2023-05-16T20:14:43.575Z,67.17
2023-05-16T20:16:46.292Z,68.02
2023-05-16T20:18:49.037Z,67.90
2023-05-16T20:20:51.878Z,69.52
2023-05-16T20:22:55.932Z,69.34
2023-05-16T20:24:58.639Z,68.54
2023-05-16T20:27:01.484Z,68.43
2023-05-16T20:29:04.765Z,67.49
2023-05-16T20:31:07.488Z,68.10
2023-05-16T20:33:10.325Z,68.33
2023-05-16T20:35:14.823Z,68.11
2023-05-16T20:39:21.883Z,69.68
2023-05-16T20:41:24.618Z,69.21
2023-05-16T20:43:27.331Z,70.25
2023-05-16T20:45:31.084Z,69.66
2023-05-16T20:47:33.760Z,68.44
2023-05-16T20:49:37.720Z,69.04
2023-05-16T20:51:40.401Z,68.88
2023-05-16T20:53:43.018Z,69.87
2023-05-16T20:55:47.092Z,70.49
2023-05-16T20:57:49.802Z,70.13
2023-05-16T20:59:52.484Z,70.50
2023-05-16T21:01:55.224Z,70.54
2023-05-16T21:03:58.108Z,70.58
2023-05-16T21:06:00.833Z,70.51
2023-05-16T21:08:03.627Z,69.22
2023-05-16T21:10:07.298Z,69.87
2023-05-16T21:12:11.646Z,69.22
2023-05-16T21:14:14.559Z,68.98
2023-05-16T21:16:17.310Z,67.81
2023-05-16T21:18:20.093Z,68.98
2023-05-16T21:20:25.519Z,67.72
2023-05-16T21:22:28.237Z,67.67
2023-05-16T21:24:34.973Z,68.79
2023-05-16T21:26:37.493Z,67.38
2023-05-16T21:28:53.959Z,69.87
2023-05-16T21:30:58.033Z,68.71
2023-05-16T21:33:00.884Z,68.82
2023-05-16T21:35:04.716Z,68.34
2023-05-16T21:37:08.492Z,67.32
2023-05-16T21:39:11.253Z,68.08
2023-05-16T21:41:14.581Z,67.55
2023-05-16T21:43:17.485Z,67.75
2023-05-16T21:45:21.581Z,68.63
2023-05-16T21:47:24.567Z,68.04
2023-05-16T21:49:27.340Z,68.37
2023-05-16T21:51:30.684Z,69.73
2023-05-16T21:53:34.418Z,69.70
2023-05-16T21:55:37.261Z,70.49
2023-05-16T21:57:39.928Z,70.36
2023-05-16T21:59:42.641Z,70.69
2023-05-16T22:01:46.698Z,72.20
2023-05-16T22:03:49.417Z,70.87
2023-05-16T22:05:52.268Z,71.40
2023-05-16T22:07:55.144Z,71.40
2023-05-16T22:09:58.481Z,73.11
2023-05-16T22:12:01.155Z,73.22
2023-05-16T22:14:04.006Z,72.99
2023-05-16T22:16:07.582Z,73.39
2023-05-16T22:18:11.867Z,71.58
2023-05-16T22:20:14.929Z,73.48
2023-05-16T22:22:17.903Z,72.92
2023-05-16T22:24:20.605Z,72.39
2023-05-16T22:26:23.706Z,74.05
2023-05-16T22:28:26.439Z,73.90
2023-05-16T22:30:29.271Z,72.88
2023-05-16T22:32:32.057Z,72.47
2023-05-16T22:34:39.353Z,72.85
2023-05-16T22:36:42.499Z,73.96
2023-05-16T22:38:45.199Z,73.25
2023-05-16T22:40:47.885Z,73.51
2023-05-16T22:42:50.558Z,73.95
2023-05-16T22:44:53.209Z,74.28
2023-05-16T22:46:56.030Z,74.29
2023-05-16T22:48:58.774Z,73.26
2023-05-16T22:51:03.413Z,74.28
2023-05-16T22:53:06.236Z,74.07
2023-05-16T22:55:09.674Z,73.27
2023-05-16T22:57:12.357Z,74.62
2023-05-16T22:59:15.113Z,74.94
2023-05-16T23:01:17.902Z,75.20
2023-05-16T23:03:20.675Z,74.96
2023-05-16T23:05:23.574Z,75.79
2023-05-16T23:07:28.850Z,75.31
2023-05-16T23:09:31.691Z,75.86
2023-05-16T23:11:34.421Z,76.67
2023-05-16T23:13:37.154Z,77.68
2023-05-16T23:15:40.053Z,76.66
2023-05-16T23:17:42.780Z,77.47
2023-05-16T23:19:45.598Z,78.13
2023-05-16T23:21:48.409Z,77.75
2023-05-16T23:23:52.486Z,77.39
2023-05-16T23:25:55.182Z,76.69
2023-05-16T23:27:58.079Z,76.79
2023-05-16T23:30:01.015Z,77.00
2023-05-16T23:32:03.924Z,78.44
2023-05-16T23:34:08.012Z,76.81
2023-05-16T23:36:10.814Z,76.39
2023-05-16T23:38:13.617Z,76.29
2023-05-16T23:40:17.683Z,78.14
2023-05-16T23:42:20.540Z,76.84
2023-05-16T23:44:23.221Z,77.69
2023-05-16T23:46:26.195Z,77.34
2023-05-16T23:48:28.997Z,77.74
2023-05-16T23:50:32.063Z,78.62
2023-05-16T23:52:34.700Z,79.02
2023-05-16T23:54:37.344Z,78.33
2023-05-16T23:56:41.480Z,79.84
2023-05-16T23:58:44.132Z,79.83
